createdAt,value
2023-02-19T00:01:15.744Z,7.60
2023-02-19T00:03:56.639Z,7.60
2023-02-19T00:06:30.807Z,7.60
2023-02-19T00:09:03.240Z,7.70
2023-02-19T00:11:35.763Z,7.70
2023-02-19T00:14:08.675Z,7.80
2023-02-19T00:16:40.776Z,7.80
2023-02-19T00:19:18.611Z,7.70
2023-02-19T00:21:54.030Z,7.70
2023-02-19T00:24:26.210Z,7.80
2023-02-19T00:26:59.117Z,7.90
2023-02-19T00:29:31.000Z,8.00
2023-02-19T00:32:04.366Z,8.10
2023-02-19T00:34:39.503Z,8.10
2023-02-19T00:37:11.540Z,8.20
2023-02-19T00:39:43.488Z,8.30
2023-02-19T00:42:15.381Z,8.40
2023-02-19T00:44:50.108Z,8.40
2023-02-19T00:47:22.017Z,8.30
2023-02-19T00:49:53.973Z,8.20
2023-02-19T00:52:26.071Z,8.10
2023-02-19T00:55:01.455Z,8.10
2023-02-19T00:57:33.516Z,8.00
2023-02-19T01:00:06.807Z,8.00
2023-02-19T01:02:38.744Z,8.00
2023-02-19T01:05:10.571Z,8.00
2023-02-19T01:07:42.452Z,8.00
2023-02-19T01:10:14.314Z,8.00
2023-02-19T01:12:46.420Z,8.00
2023-02-19T01:15:19.288Z,8.00
2023-02-19T01:17:51.208Z,8.00
2023-02-19T01:20:23.076Z,8.10
2023-02-19T01:22:55.476Z,8.10
2023-02-19T01:25:27.366Z,8.10
2023-02-19T01:27:59.351Z,8.10
2023-02-19T01:30:31.326Z,8.10
2023-02-19T01:33:04.921Z,8.20
2023-02-19T01:35:40.370Z,8.20
2023-02-19T01:38:13.760Z,8.30
2023-02-19T01:40:45.569Z,8.30
2023-02-19T01:43:19.299Z,8.40
2023-02-19T01:45:51.516Z,8.40
2023-02-19T01:48:32.370Z,8.50
2023-02-19T01:51:09.931Z,8.40
2023-02-19T01:53:45.914Z,8.40
2023-02-19T01:56:22.054Z,8.40
2023-02-19T01:58:54.464Z,8.50
2023-02-19T02:01:26.378Z,8.50
2023-02-19T02:03:58.480Z,8.60
2023-02-19T02:06:49.644Z,8.60
2023-02-19T02:09:43.010Z,8.60
2023-02-19T02:12:16.084Z,8.60
2023-02-19T02:14:48.609Z,8.40
2023-02-19T02:17:24.777Z,8.40
2023-02-19T02:20:11.695Z,8.30
2023-02-19T02:22:46.992Z,8.40
2023-02-19T02:25:31.415Z,8.30
2023-02-19T02:28:29.060Z,8.20
2023-02-19T02:31:20.926Z,8.20
2023-02-19T02:34:19.025Z,8.10
2023-02-19T02:36:54.565Z,8.10
2023-02-19T02:39:29.407Z,8.20
2023-02-19T02:42:21.283Z,8.20
2023-02-19T02:45:36.126Z,8.20
2023-02-19T02:48:34.590Z,8.20
2023-02-19T02:51:20.283Z,8.20
2023-02-19T02:54:40.487Z,8.20
2023-02-19T02:57:18.202Z,8.10
2023-02-19T03:00:00.299Z,7.90
2023-02-19T03:02:32.534Z,7.90
2023-02-19T03:05:35.179Z,7.70
2023-02-19T03:08:13.115Z,7.60
2023-02-19T03:10:54.529Z,7.60
2023-02-19T03:13:52.838Z,7.60
2023-02-19T03:16:49.342Z,7.60
2023-02-19T03:19:24.925Z,7.60
2023-02-19T03:22:31.314Z,7.60
2023-02-19T03:25:46.828Z,7.50
2023-02-19T03:28:47.332Z,7.50
2023-02-19T03:31:25.211Z,7.60
2023-02-19T03:34:00.914Z,7.50
2023-02-19T03:36:40.841Z,7.60
2023-02-19T03:39:17.619Z,7.60
2023-02-19T03:42:02.466Z,7.60
2023-02-19T03:44:53.344Z,7.60
2023-02-19T03:47:30.329Z,7.70
2023-02-19T03:50:23.453Z,7.60
2023-02-19T03:53:19.137Z,7.60
2023-02-19T03:56:01.564Z,7.60
2023-02-19T03:58:51.956Z,7.70
2023-02-19T04:01:39.940Z,7.70
2023-02-19T04:04:37.386Z,7.70
2023-02-19T04:07:10.572Z,7.60
2023-02-19T04:09:48.847Z,7.70
2023-02-19T04:12:24.356Z,7.70
2023-02-19T04:15:06.523Z,7.70
2023-02-19T04:18:03.846Z,7.70
2023-02-19T04:20:46.217Z,7.60
2023-02-19T04:23:22.146Z,7.60
2023-02-19T04:25:57.857Z,7.60
2023-02-19T04:28:33.389Z,7.60
2023-02-19T04:31:05.978Z,7.60
2023-02-19T04:33:38.456Z,7.70
2023-02-19T04:36:11.662Z,7.80
2023-02-19T04:38:43.488Z,7.80
2023-02-19T04:41:15.340Z,7.90
2023-02-19T04:43:47.122Z,7.80
2023-02-19T04:46:19.158Z,7.80
2023-02-19T04:48:51.028Z,7.80
2023-02-19T04:51:23.055Z,7.80
2023-02-19T04:53:56.403Z,7.80
2023-02-19T04:56:28.312Z,7.80
2023-02-19T04:59:00.212Z,7.70
2023-02-19T05:01:32.049Z,7.60
2023-02-19T05:04:04.983Z,7.60
2023-02-19T05:06:36.867Z,7.60
2023-02-19T05:09:09.042Z,7.60
2023-02-19T05:11:40.889Z,7.70
2023-02-19T05:14:12.778Z,7.70
2023-02-19T05:16:44.774Z,7.70
2023-02-19T05:19:16.655Z,7.70
2023-02-19T05:21:48.494Z,7.70
2023-02-19T05:24:20.574Z,7.80
2023-02-19T05:26:52.427Z,7.90
2023-02-19T05:29:24.371Z,7.90
2023-02-19T05:31:56.380Z,7.80
2023-02-19T05:34:28.380Z,7.70
2023-02-19T05:37:00.282Z,7.70
2023-02-19T05:39:32.132Z,7.60
2023-02-19T05:42:04.084Z,7.70
2023-02-19T05:44:35.973Z,7.70
2023-02-19T05:47:07.800Z,7.70
2023-02-19T05:49:39.789Z,7.80
2023-02-19T05:52:11.675Z,7.90
2023-02-19T05:54:43.474Z,7.90
2023-02-19T05:57:15.328Z,7.90
2023-02-19T05:59:47.227Z,7.90
2023-02-19T06:02:19.081Z,7.90
2023-02-19T06:04:50.964Z,7.80
2023-02-19T06:07:22.801Z,7.70
2023-02-19T06:09:54.777Z,7.70
2023-02-19T06:12:26.742Z,7.70
2023-02-19T06:14:58.609Z,7.70
2023-02-19T06:17:31.044Z,7.70
2023-02-19T06:20:03.598Z,7.70
2023-02-19T06:22:35.456Z,7.70
2023-02-19T06:25:12.209Z,7.80
2023-02-19T06:27:44.137Z,7.80
2023-02-19T06:30:16.057Z,7.80
2023-02-19T06:32:47.938Z,7.70
2023-02-19T06:35:21.552Z,7.80
2023-02-19T06:37:53.339Z,7.80
2023-02-19T06:40:25.162Z,7.70
2023-02-19T06:42:56.941Z,7.70
2023-02-19T06:45:28.794Z,7.70
2023-02-19T06:48:00.619Z,7.80
2023-02-19T06:50:32.436Z,8.00
2023-02-19T06:53:04.456Z,8.00
2023-02-19T06:55:36.272Z,8.00
2023-02-19T06:58:08.133Z,7.90
2023-02-19T07:00:39.996Z,7.90
2023-02-19T07:03:11.804Z,7.80
2023-02-19T07:05:43.969Z,7.60
2023-02-19T07:08:17.373Z,7.50
2023-02-19T07:10:56.867Z,7.50
2023-02-19T07:13:28.756Z,7.50
2023-02-19T07:16:02.912Z,7.40
2023-02-19T07:18:35.564Z,7.40
2023-02-19T07:21:13.114Z,7.40
2023-02-19T07:23:45.853Z,7.50
2023-02-19T07:26:19.291Z,7.50
2023-02-19T07:28:52.008Z,7.60
2023-02-19T07:31:24.844Z,7.60
2023-02-19T07:33:56.883Z,7.60
2023-02-19T07:36:28.840Z,7.60
2023-02-19T07:39:00.673Z,7.70
2023-02-19T07:41:33.069Z,7.70
2023-02-19T07:44:05.125Z,7.70
2023-02-19T07:46:37.059Z,7.80
2023-02-19T07:49:09.008Z,7.80
2023-02-19T07:51:41.474Z,7.80
2023-02-19T07:54:13.648Z,7.90
2023-02-19T07:56:45.648Z,7.90
2023-02-19T07:59:19.448Z,8.10
2023-02-19T08:02:09.911Z,8.20
2023-02-19T08:04:41.801Z,8.40
2023-02-19T08:07:13.678Z,8.50
2023-02-19T08:09:45.556Z,8.70
2023-02-19T08:12:36.105Z,8.70
2023-02-19T08:15:08.432Z,8.60
2023-02-19T08:17:40.313Z,8.60
2023-02-19T08:20:12.162Z,8.60
2023-02-19T08:22:43.945Z,8.70
2023-02-19T08:25:15.897Z,8.70
2023-02-19T08:27:47.728Z,8.80
2023-02-19T08:30:19.675Z,8.90
2023-02-19T08:32:51.700Z,9.00
2023-02-19T08:35:23.659Z,9.00
2023-02-19T08:37:57.282Z,9.10
2023-02-19T08:40:29.167Z,9.10
2023-02-19T08:43:06.284Z,9.20
2023-02-19T08:45:39.816Z,9.30
2023-02-19T08:48:12.435Z,9.20
2023-02-19T08:50:44.331Z,9.20
2023-02-19T08:53:16.213Z,9.30
2023-02-19T08:55:48.184Z,9.20
2023-02-19T08:58:20.156Z,9.30
2023-02-19T09:00:52.612Z,9.20
2023-02-19T09:03:24.492Z,9.10
2023-02-19T09:05:56.333Z,9.10
2023-02-19T09:08:28.142Z,9.10
2023-02-19T09:11:03.460Z,9.20
2023-02-19T09:13:35.324Z,9.30
2023-02-19T09:16:07.578Z,9.30
2023-02-19T09:18:39.811Z,9.30
2023-02-19T09:21:11.913Z,9.30
2023-02-19T09:23:43.964Z,9.50
2023-02-19T09:26:15.891Z,9.60
2023-02-19T09:28:47.820Z,9.80
2023-02-19T09:31:19.979Z,9.80
2023-02-19T09:33:51.907Z,9.80
2023-02-19T09:36:23.791Z,9.80
2023-02-19T09:38:55.892Z,10.00
2023-02-19T09:41:32.193Z,10.10
2023-02-19T09:44:07.419Z,10.20
2023-02-19T09:46:49.098Z,10.40
2023-02-19T09:49:30.233Z,10.50
2023-02-19T09:52:24.805Z,10.60
2023-02-19T09:55:04.720Z,10.80
2023-02-19T09:57:38.370Z,10.80
2023-02-19T10:00:24.513Z,10.70
2023-02-19T10:03:31.939Z,10.50
2023-02-19T10:06:12.480Z,10.30
2023-02-19T10:08:47.044Z,10.30
2023-02-19T10:11:19.528Z,10.30
2023-02-19T10:14:09.134Z,10.30
2023-02-19T10:16:43.516Z,10.10
2023-02-19T10:19:16.295Z,10.00
2023-02-19T10:21:48.255Z,10.10
2023-02-19T10:24:29.659Z,10.20
2023-02-19T10:27:01.558Z,10.30
2023-02-19T10:29:33.501Z,10.30
2023-02-19T10:32:21.176Z,10.30
2023-02-19T10:35:13.710Z,10.30
2023-02-19T10:37:49.688Z,10.40
2023-02-19T10:40:30.826Z,10.50
2023-02-19T10:43:05.183Z,10.40
2023-02-19T10:45:47.880Z,10.60
2023-02-19T10:48:28.109Z,10.80
2023-02-19T10:51:05.144Z,10.60
2023-02-19T10:53:51.804Z,10.60
2023-02-19T10:56:31.518Z,10.80
2023-02-19T10:59:35.665Z,11.00
2023-02-19T11:02:18.473Z,11.10
2023-02-19T11:05:18.056Z,11.40
2023-02-19T11:07:56.008Z,11.60
2023-02-19T11:10:39.994Z,11.70
2023-02-19T11:13:21.953Z,11.60
2023-02-19T11:15:55.415Z,11.40
2023-02-19T11:18:30.730Z,11.20
2023-02-19T11:21:05.088Z,11.10
2023-02-19T11:23:47.543Z,11.30
2023-02-19T11:26:23.693Z,11.50
2023-02-19T11:29:22.544Z,11.50
2023-02-19T11:31:56.361Z,11.50
2023-02-19T11:34:30.167Z,11.30
2023-02-19T11:37:28.176Z,11.30
2023-02-19T11:40:00.053Z,11.40
2023-02-19T11:42:48.932Z,11.60
2023-02-19T11:45:48.505Z,11.80
2023-02-19T11:48:34.722Z,11.90
2023-02-19T11:51:39.182Z,11.90
2023-02-19T11:54:37.308Z,11.60
2023-02-19T11:57:37.728Z,11.40
2023-02-19T12:00:24.794Z,11.30
2023-02-19T12:03:21.612Z,11.10
2023-02-19T12:06:13.529Z,11.10
2023-02-19T12:09:15.051Z,11.20
2023-02-19T12:12:07.021Z,11.10
2023-02-19T12:15:03.324Z,11.20
2023-02-19T12:18:11.205Z,11.20
2023-02-19T12:21:01.801Z,11.10
2023-02-19T12:23:45.170Z,11.20
2023-02-19T12:26:35.560Z,11.50
2023-02-19T12:29:25.552Z,11.80
2023-02-19T12:32:14.790Z,12.10
2023-02-19T12:35:14.616Z,12.10
2023-02-19T12:38:24.150Z,12.00
2023-02-19T12:41:18.451Z,12.20
2023-02-19T12:43:58.193Z,12.10
2023-02-19T12:46:38.443Z,12.00
2023-02-19T12:49:26.190Z,12.20
2023-02-19T12:52:03.266Z,12.50
2023-02-19T12:54:40.020Z,12.70
2023-02-19T12:57:16.652Z,12.70
2023-02-19T12:59:56.108Z,12.60
2023-02-19T13:02:38.750Z,12.60
2023-02-19T13:05:39.632Z,12.70
2023-02-19T13:08:29.181Z,12.80
2023-02-19T13:14:33.266Z,13.10
2023-02-19T13:17:44.063Z,13.00
2023-02-19T13:20:19.084Z,13.10
2023-02-19T13:23:22.878Z,13.10
2023-02-19T13:26:00.558Z,12.90
2023-02-19T13:28:41.272Z,12.60
2023-02-19T13:31:31.922Z,12.50
2023-02-19T13:34:33.032Z,12.60
2023-02-19T13:37:05.280Z,12.70
2023-02-19T13:39:37.728Z,12.80
2023-02-19T13:42:31.989Z,12.80
2023-02-19T13:45:06.493Z,12.80
2023-02-19T13:48:01.478Z,12.80
2023-02-19T13:50:34.583Z,12.90
2023-02-19T13:53:44.758Z,13.10
2023-02-19T13:56:34.603Z,13.00
2023-02-19T13:59:15.431Z,13.00
2023-02-19T14:01:52.764Z,13.10
2023-02-19T14:04:32.292Z,13.10
2023-02-19T14:07:04.237Z,13.00
2023-02-19T14:09:41.560Z,13.10
2023-02-19T14:12:15.729Z,13.10
2023-02-19T14:14:54.896Z,12.80
2023-02-19T14:17:35.591Z,12.50
2023-02-19T14:20:16.649Z,12.50
2023-02-19T14:23:01.723Z,12.40
2023-02-19T14:25:38.969Z,12.40
2023-02-19T14:28:11.393Z,12.40
2023-02-19T14:30:49.878Z,12.40
2023-02-19T14:33:27.943Z,12.50
2023-02-19T14:36:15.261Z,12.50
2023-02-19T14:39:12.249Z,12.60
2023-02-19T14:41:54.786Z,12.50
2023-02-19T14:44:30.658Z,12.30
2023-02-19T14:47:09.420Z,12.10
2023-02-19T14:49:46.317Z,12.10
2023-02-19T14:52:36.676Z,12.10
2023-02-19T14:55:13.405Z,12.10
2023-02-19T14:57:47.497Z,12.00
2023-02-19T15:00:22.665Z,12.00
2023-02-19T15:02:56.791Z,12.10
2023-02-19T15:05:31.326Z,12.20
2023-02-19T15:08:08.770Z,12.20
2023-02-19T15:10:43.034Z,12.10
2023-02-19T15:13:21.748Z,12.10
2023-02-19T15:15:55.483Z,12.00
2023-02-19T15:18:28.250Z,11.90
2023-02-19T15:21:03.071Z,11.90
2023-02-19T15:23:35.937Z,11.90
2023-02-19T15:26:22.833Z,11.90
2023-02-19T15:29:09.705Z,11.80
2023-02-19T15:31:50.259Z,11.70
2023-02-19T15:34:30.643Z,11.80
2023-02-19T15:37:08.006Z,11.70
2023-02-19T15:39:48.185Z,11.70
2023-02-19T15:42:26.483Z,11.70
2023-02-19T15:45:09.457Z,11.80
2023-02-19T15:48:00.577Z,11.80
2023-02-19T15:50:34.862Z,11.70
2023-02-19T15:53:13.016Z,11.60
2023-02-19T15:56:05.255Z,11.50
2023-02-19T15:58:47.084Z,11.50
2023-02-19T16:01:26.481Z,11.40
2023-02-19T16:03:58.861Z,11.40
2023-02-19T16:06:30.802Z,11.40
2023-02-19T16:09:05.708Z,11.40
2023-02-19T16:11:52.981Z,11.20
2023-02-19T16:14:36.588Z,11.20
2023-02-19T16:17:11.458Z,11.20
2023-02-19T16:19:43.580Z,11.20
2023-02-19T16:22:20.177Z,11.10
2023-02-19T16:24:58.568Z,11.10
2023-02-19T16:27:35.213Z,11.10
2023-02-19T16:30:29.153Z,11.00
2023-02-19T16:33:38.382Z,11.00
2023-02-19T16:36:37.871Z,11.10
2023-02-19T16:39:09.843Z,11.00
2023-02-19T16:41:47.596Z,10.90
2023-02-19T16:44:25.434Z,10.80
2023-02-19T16:47:27.332Z,10.70
2023-02-19T16:50:01.476Z,10.60
2023-02-19T16:52:33.584Z,10.70
2023-02-19T16:55:13.169Z,10.50
2023-02-19T16:57:45.055Z,10.40
2023-02-19T17:00:24.972Z,10.40
2023-02-19T17:03:08.840Z,10.30
2023-02-19T17:05:41.605Z,10.30
2023-02-19T17:08:23.068Z,10.20
2023-02-19T17:10:56.207Z,10.10
2023-02-19T17:13:29.293Z,10.00
2023-02-19T17:16:01.438Z,9.90
2023-02-19T17:18:33.431Z,9.90
2023-02-19T17:21:20.602Z,9.80
2023-02-19T17:23:54.040Z,9.70
2023-02-19T17:26:29.115Z,9.80
2023-02-19T17:29:04.406Z,9.80
2023-02-19T17:31:36.621Z,9.70
2023-02-19T17:34:09.163Z,9.60
2023-02-19T17:36:43.260Z,9.60
2023-02-19T17:39:16.400Z,9.60
2023-02-19T17:41:48.415Z,9.40
2023-02-19T17:44:20.341Z,9.30
2023-02-19T17:46:52.206Z,9.20
2023-02-19T17:49:24.091Z,9.20
2023-02-19T17:51:55.929Z,9.10
2023-02-19T17:54:27.824Z,9.00
2023-02-19T17:56:59.734Z,8.80
2023-02-19T17:59:31.592Z,8.80
2023-02-19T18:02:03.403Z,8.80
2023-02-19T18:04:36.602Z,8.80
2023-02-19T18:07:08.905Z,8.80
2023-02-19T18:09:41.246Z,8.70
2023-02-19T18:12:13.177Z,8.50
2023-02-19T18:14:48.135Z,8.30
2023-02-19T18:17:20.292Z,8.10
2023-02-19T18:19:53.402Z,8.00
2023-02-19T18:22:25.287Z,7.90
2023-02-19T18:24:57.020Z,7.90
2023-02-19T18:27:28.944Z,7.90
2023-02-19T18:30:01.459Z,8.00
2023-02-19T18:32:33.574Z,8.10
2023-02-19T18:35:06.044Z,8.10
2023-02-19T18:37:37.924Z,8.10
2023-02-19T18:40:10.621Z,8.10
2023-02-19T18:42:42.540Z,7.90
2023-02-19T18:45:14.653Z,7.80
2023-02-19T18:47:49.931Z,7.70
2023-02-19T18:50:21.900Z,7.70
2023-02-19T18:52:53.831Z,7.70
2023-02-19T18:55:25.758Z,7.70
2023-02-19T18:57:57.676Z,7.70
2023-02-19T19:00:29.684Z,7.60
2023-02-19T19:03:01.750Z,7.60
2023-02-19T19:05:33.776Z,7.60
2023-02-19T19:08:05.722Z,7.70
2023-02-19T19:10:37.634Z,7.80
2023-02-19T19:13:09.480Z,7.90
2023-02-19T19:15:41.521Z,7.90
2023-02-19T19:18:13.660Z,7.80
2023-02-19T19:20:45.829Z,7.70
2023-02-19T19:23:17.724Z,7.70
2023-02-19T19:25:49.757Z,7.70
2023-02-19T19:28:22.057Z,7.70
2023-02-19T19:30:54.059Z,7.70
2023-02-19T19:33:28.090Z,7.70
2023-02-19T19:36:00.226Z,7.70
2023-02-19T19:38:32.330Z,7.80
2023-02-19T19:41:04.866Z,7.80
2023-02-19T19:43:37.831Z,7.90
2023-02-19T19:46:10.483Z,8.00
2023-02-19T19:48:42.295Z,8.10
2023-02-19T19:51:14.746Z,8.30
2023-02-19T19:53:50.270Z,8.40
2023-02-19T19:56:22.143Z,8.50
2023-02-19T19:58:53.932Z,8.50
2023-02-19T20:01:25.830Z,8.50
2023-02-19T20:03:57.663Z,8.40
2023-02-19T20:06:31.794Z,8.40
2023-02-19T20:09:04.148Z,8.40
2023-02-19T20:11:36.086Z,8.40
2023-02-19T20:14:08.079Z,8.40
2023-02-19T20:16:40.022Z,8.50
2023-02-19T20:19:12.221Z,8.50
2023-02-19T20:21:49.179Z,8.40
2023-02-19T20:24:28.876Z,8.40
2023-02-19T20:27:02.684Z,8.50
2023-02-19T20:29:35.610Z,8.60
2023-02-19T20:32:07.535Z,8.70
2023-02-19T20:34:39.452Z,8.80
2023-02-19T20:37:11.522Z,8.80
2023-02-19T20:39:43.521Z,8.70
2023-02-19T20:42:17.020Z,8.80
2023-02-19T20:44:48.944Z,8.80
2023-02-19T20:47:20.802Z,8.80
2023-02-19T20:49:52.704Z,8.80
2023-02-19T20:52:24.867Z,8.80
2023-02-19T20:54:57.208Z,8.80
2023-02-19T20:57:29.211Z,8.80
2023-02-19T21:00:03.641Z,8.90
2023-02-19T21:02:35.754Z,8.90
2023-02-19T21:05:09.508Z,8.90
2023-02-19T21:07:41.336Z,8.90
2023-02-19T21:10:13.585Z,8.90
2023-02-19T21:12:45.470Z,9.00
2023-02-19T21:15:17.601Z,9.20
2023-02-19T21:17:50.020Z,9.20
2023-02-19T21:20:21.950Z,9.20
2023-02-19T21:22:53.954Z,9.10
2023-02-19T21:25:25.900Z,9.10
2023-02-19T21:27:57.700Z,9.10
2023-02-19T21:30:29.633Z,9.20
2023-02-19T21:33:01.953Z,9.20
2023-02-19T21:35:33.947Z,9.20
2023-02-19T21:38:06.981Z,9.20
2023-02-19T21:40:38.911Z,9.30
2023-02-19T21:43:12.482Z,9.30
2023-02-19T21:45:44.334Z,9.40
2023-02-19T21:48:16.238Z,9.40
2023-02-19T21:50:48.606Z,9.40
2023-02-19T21:53:20.506Z,9.40
2023-02-19T21:55:58.145Z,9.40
2023-02-19T21:58:30.581Z,9.40
2023-02-19T22:01:05.686Z,9.40
2023-02-19T22:03:37.533Z,9.40
2023-02-19T22:06:09.637Z,9.50
2023-02-19T22:08:41.817Z,9.50
2023-02-19T22:11:13.887Z,9.40
2023-02-19T22:13:45.801Z,9.30
2023-02-19T22:16:18.360Z,9.20
2023-02-19T22:18:52.656Z,9.20
2023-02-19T22:21:32.280Z,9.20
2023-02-19T22:24:04.392Z,9.20
2023-02-19T22:26:36.407Z,9.10
2023-02-19T22:29:10.188Z,9.20
2023-02-19T22:31:42.817Z,9.20
2023-02-19T22:34:15.656Z,9.10
2023-02-19T22:36:47.572Z,9.00
2023-02-19T22:39:22.759Z,9.00
2023-02-19T22:41:54.724Z,9.10
2023-02-19T22:44:26.731Z,9.10
2023-02-19T22:46:58.552Z,9.10
2023-02-19T22:49:30.388Z,9.20
2023-02-19T22:52:08.094Z,9.20
2023-02-19T22:54:40.034Z,9.10
2023-02-19T22:57:11.893Z,9.20
2023-02-19T22:59:43.796Z,9.20
2023-02-19T23:02:15.708Z,9.30
2023-02-19T23:04:47.604Z,9.30
2023-02-19T23:07:19.564Z,9.30
2023-02-19T23:09:51.519Z,9.30
2023-02-19T23:12:23.393Z,9.30
2023-02-19T23:14:55.256Z,9.20
2023-02-19T23:17:27.119Z,9.20
2023-02-19T23:19:59.095Z,9.20
2023-02-19T23:22:30.996Z,9.20
2023-02-19T23:25:03.523Z,9.20
2023-02-19T23:27:35.374Z,9.30
2023-02-19T23:30:07.788Z,9.40
2023-02-19T23:32:39.641Z,9.30
2023-02-19T23:35:11.580Z,9.40
2023-02-19T23:37:43.407Z,9.30
2023-02-19T23:40:15.362Z,9.30
2023-02-19T23:42:47.208Z,9.30
2023-02-19T23:45:19.169Z,9.20
2023-02-19T23:47:51.029Z,9.20
2023-02-19T23:50:22.944Z,9.10
2023-02-19T23:52:56.855Z,9.10
2023-02-19T23:55:28.761Z,9.10
2023-02-19T23:58:01.045Z,9.20
